Time;durP1;ratioP1;P1;durP2;ratioP2;P2;SDS_P1;SDS_P2;PMS_P1;PMS_P2;Temp;Humidity;BMP_temperature;BMP_pressure;BME280_temperature;BME280_humidity;BME280_pressure;Samples;Min_cycle;Max_cycle;Signal;HPM_P1;HPM_P2
2022/08/30 00:01:01;;;;;;;4.75;2.60;;;20.00;99.90;;;;;;5013735;28;20031;-76
2022/08/30 00:02:00;;;;;;;3.38;2.50;;;20.00;99.90;;;;;;4985319;28;20081;-77
2022/08/30 00:04:25;;;;;;;9.55;2.53;;;20.00;99.90;;;;;;4982721;28;20015;-75
2022/08/30 00:06:52;;;;;;;3.47;3.03;;;20.00;99.90;;;;;;4979086;28;20368;-77
2022/08/30 00:09:20;;;;;;;5.70;2.97;;;19.90;99.90;;;;;;4996394;28;20514;-75
2022/08/30 00:11:50;;;;;;;6.22;3.40;;;19.90;99.90;;;;;;4982303;28;20104;-77
2022/08/30 00:14:19;;;;;;;4.53;2.47;;;19.80;99.90;;;;;;4986590;28;20431;-77
2022/08/30 00:16:44;;;;;;;10.95;2.58;;;19.80;99.90;;;;;;4978787;28;20027;-76
2022/08/30 00:19:10;;;;;;;5.18;2.90;;;19.70;99.90;;;;;;4982457;28;20045;-77
2022/08/30 00:21:38;;;;;;;6.70;2.80;;;19.70;99.90;;;;;;4983547;28;21119;-77
2022/08/30 00:24:06;;;;;;;9.48;2.67;;;19.60;99.90;;;;;;4996131;28;20031;-76
2022/08/30 00:26:32;;;;;;;6.05;2.70;;;19.60;99.90;;;;;;4981506;28;20037;-77
2022/08/30 00:28:57;;;;;;;5.65;2.90;;;19.60;99.90;;;;;;4981984;28;20113;-78
2022/08/30 00:31:23;;;;;;;4.95;2.88;;;19.60;99.90;;;;;;4981717;28;20022;-77
2022/08/30 00:33:49;;;;;;;9.60;2.75;;;19.60;99.90;;;;;;4985756;28;20061;-78
2022/08/30 00:36:14;;;;;;;3.40;2.58;;;19.50;99.90;;;;;;4991220;28;20026;-76
2022/08/30 00:38:40;;;;;;;5.53;2.47;;;19.50;99.90;;;;;;5001681;28;20113;-77
2022/08/30 00:41:06;;;;;;;3.95;2.53;;;19.50;99.90;;;;;;5002782;28;20041;-78
2022/08/30 00:43:34;;;;;;;6.50;3.00;;;19.40;99.90;;;;;;4991450;28;20211;-77
2022/08/30 00:46:03;;;;;;;4.38;3.00;;;19.40;99.90;;;;;;4985487;28;20033;-77
2022/08/30 00:48:30;;;;;;;3.95;2.65;;;19.40;99.90;;;;;;4982025;28;20026;-78
2022/08/30 00:51:06;;;;;;;7.13;2.78;;;19.40;99.90;;;;;;4982048;28;20045;-78
2022/08/30 00:53:37;;;;;;;6.05;2.92;;;19.40;99.90;;;;;;5001198;28;20073;-77
2022/08/30 00:56:04;;;;;;;3.00;2.55;;;19.40;99.90;;;;;;4986617;28;20046;-78
2022/08/30 00:58:37;;;;;;;5.78;2.83;;;19.30;99.90;;;;;;4985600;28;20027;-78
2022/08/30 01:01:04;;;;;;;6.50;2.88;;;19.30;99.90;;;;;;4994271;28;20053;-78
2022/08/30 01:03:31;;;;;;;5.13;2.83;;;19.20;99.90;;;;;;4992369;28;20042;-77
2022/08/30 01:05:58;;;;;;;5.10;2.58;;;19.20;99.90;;;;;;4983764;28;20114;-77
2022/08/30 01:08:24;;;;;;;4.22;2.80;;;19.20;99.90;;;;;;4983472;28;20022;-78
2022/08/30 01:10:51;;;;;;;7.72;3.47;;;19.20;99.90;;;;;;4998729;28;20038;-77
2022/08/30 01:13:18;;;;;;;4.70;2.85;;;19.10;99.90;;;;;;4990278;28;20081;-78
2022/08/30 01:15:45;;;;;;;5.95;2.90;;;19.10;99.90;;;;;;4985033;28;20026;-78
2022/08/30 01:18:11;;;;;;;4.68;2.55;;;19.00;99.90;;;;;;4982793;28;20049;-78
2022/08/30 01:20:52;;;;;;;6.25;2.78;;;19.00;99.90;;;;;;4987769;28;20088;-78
2022/08/30 01:23:20;;;;;;;3.90;2.85;;;18.90;99.90;;;;;;4999845;28;20093;-76
2022/08/30 01:25:48;;;;;;;7.00;3.53;;;18.90;99.90;;;;;;4985444;28;20038;-76
2022/08/30 01:28:20;;;;;;;10.80;3.33;;;18.90;99.90;;;;;;4981143;28;20062;-76
2022/08/30 01:30:46;;;;;;;6.15;3.13;;;18.80;99.90;;;;;;4983251;28;20351;-78
2022/08/30 01:33:12;;;;;;;4.90;3.00;;;18.80;99.90;;;;;;4989645;28;20090;-75
2022/08/30 01:35:52;;;;;;;4.28;3.10;;;18.70;99.90;;;;;;4982478;28;20026;-78
2022/08/30 01:38:23;;;;;;;3.35;2.97;;;18.80;99.90;;;;;;4978233;28;20057;-76
2022/08/30 01:40:49;;;;;;;3.20;2.90;;;18.80;99.90;;;;;;4979785;28;20033;-77
2022/08/30 01:43:17;;;;;;;3.33;2.55;;;18.70;99.90;;;;;;4982180;28;20065;-75
2022/08/30 01:45:43;;;;;;;5.22;3.08;;;18.60;99.90;;;;;;4980016;28;20320;-76
2022/08/30 01:48:11;;;;;;;3.47;3.15;;;18.60;99.90;;;;;;5001702;28;20022;-76
2022/08/30 01:50:38;;;;;;;6.68;3.58;;;18.50;99.90;;;;;;4979342;28;20027;-77
2022/08/30 01:53:07;;;;;;;7.15;3.50;;;18.50;99.90;;;;;;4981279;28;20026;-75
2022/08/30 01:55:33;;;;;;;3.90;3.40;;;18.50;99.90;;;;;;4983403;28;20023;-77
2022/08/30 01:57:59;;;;;;;7.70;3.42;;;18.50;99.90;;;;;;4979872;28;20031;-79
2022/08/30 02:00:28;;;;;;;8.38;3.80;;;18.50;99.90;;;;;;4979245;28;20373;-77
2022/08/30 02:02:58;;;;;;;6.20;3.80;;;18.50;99.90;;;;;;4980589;28;20034;-78
2022/08/30 02:05:24;;;;;;;5.72;3.95;;;18.40;99.90;;;;;;4980303;28;20081;-79
2022/08/30 02:07:50;;;;;;;6.28;3.83;;;18.40;99.90;;;;;;4982145;28;20081;-76
2022/08/30 02:10:16;;;;;;;3.47;3.17;;;18.40;99.90;;;;;;4978610;28;20019;-76
2022/08/30 02:12:41;;;;;;;4.53;3.83;;;18.40;99.90;;;;;;4981274;28;20049;-76
2022/08/30 02:15:08;;;;;;;4.32;3.55;;;18.40;99.90;;;;;;4979857;28;20023;-75
2022/08/30 02:17:34;;;;;;;5.05;3.88;;;18.30;99.90;;;;;;4981230;28;20548;-79
2022/08/30 02:20:00;;;;;;;5.93;4.00;;;18.30;99.90;;;;;;4981638;28;20041;-76
2022/08/30 02:22:31;;;;;;;4.43;3.88;;;18.20;99.90;;;;;;4980624;28;20491;-78
2022/08/30 02:24:59;;;;;;;5.15;4.00;;;18.20;99.90;;;;;;4981708;28;20027;-77
2022/08/30 02:27:26;;;;;;;7.22;4.00;;;18.20;99.90;;;;;;4981358;28;20027;-77
2022/08/30 02:29:51;;;;;;;6.05;3.90;;;18.20;99.90;;;;;;4979634;28;20022;-75
2022/08/30 02:32:17;;;;;;;6.53;4.40;;;18.10;99.90;;;;;;4979662;28;20019;-75
2022/08/30 02:34:43;;;;;;;8.13;4.00;;;18.10;99.90;;;;;;4979343;28;20031;-76
2022/08/30 02:37:09;;;;;;;9.75;4.18;;;18.10;99.90;;;;;;4979779;28;20023;-78
2022/08/30 02:39:37;;;;;;;8.25;4.00;;;18.00;99.90;;;;;;4982700;28;20548;-77
2022/08/30 02:42:04;;;;;;;9.57;4.63;;;18.10;99.90;;;;;;4983431;28;20150;-76
2022/08/30 02:44:29;;;;;;;4.60;4.20;;;18.00;99.90;;;;;;4984392;28;20047;-76
2022/08/30 02:46:57;;;;;;;6.53;4.10;;;18.00;99.90;;;;;;4979618;28;20077;-77
2022/08/30 02:49:23;;;;;;;7.13;4.55;;;18.00;99.90;;;;;;4982305;28;20141;-77
2022/08/30 02:51:49;;;;;;;4.97;4.07;;;18.00;99.90;;;;;;4984488;28;20070;-76
2022/08/30 02:54:18;;;;;;;7.30;4.07;;;17.90;99.90;;;;;;4985912;28;20046;-76
2022/08/30 02:56:48;;;;;;;6.28;4.10;;;18.00;99.90;;;;;;4982386;28;20041;-77
2022/08/30 02:59:15;;;;;;;5.47;4.28;;;17.90;99.90;;;;;;4989766;28;20452;-78
2022/08/30 03:01:41;;;;;;;6.45;4.43;;;17.90;99.90;;;;;;4985085;28;20034;-78
2022/08/30 03:04:10;;;;;;;4.40;3.80;;;18.00;99.90;;;;;;4979917;28;20100;-75
2022/08/30 03:06:35;;;;;;;4.80;4.30;;;17.90;99.90;;;;;;4981077;28;20042;-77
2022/08/30 03:09:04;;;;;;;5.70;4.18;;;17.90;99.90;;;;;;4980628;28;20026;-78
2022/08/30 03:11:29;;;;;;;4.80;4.40;;;18.00;99.90;;;;;;4981281;28;20034;-76
2022/08/30 03:13:55;;;;;;;5.72;3.60;;;17.90;99.90;;;;;;4980520;28;20422;-75
2022/08/30 03:16:21;;;;;;;5.50;4.50;;;17.90;99.90;;;;;;4981554;28;20027;-78
2022/08/30 03:18:47;;;;;;;10.88;4.45;;;17.80;99.90;;;;;;4979221;28;20125;-77
2022/08/30 03:21:15;;;;;;;6.28;3.85;;;17.80;99.90;;;;;;4982406;28;20345;-77
2022/08/30 03:23:41;;;;;;;5.53;5.03;;;17.80;99.90;;;;;;4980451;28;20037;-77
2022/08/30 03:26:10;;;;;;;8.60;3.97;;;17.80;99.90;;;;;;4982359;28;20030;-77
2022/08/30 03:28:37;;;;;;;5.57;4.15;;;17.80;99.90;;;;;;4979265;28;20023;-79
2022/08/30 03:31:02;;;;;;;5.32;4.70;;;17.80;99.90;;;;;;4996216;28;20023;-77
2022/08/30 03:33:29;;;;;;;8.85;4.18;;;17.80;99.90;;;;;;4976403;28;20027;-74
2022/08/30 03:35:57;;;;;;;8.02;4.53;;;17.80;99.90;;;;;;4989324;28;20053;-77
2022/08/30 03:38:23;;;;;;;8.80;4.57;;;17.70;99.90;;;;;;4983339;28;20026;-77
2022/08/30 03:40:49;;;;;;;7.63;4.80;;;17.70;99.90;;;;;;4984361;28;20026;-78
2022/08/30 03:43:14;;;;;;;6.38;4.90;;;17.60;99.90;;;;;;4979734;28;20030;-77
2022/08/30 03:45:43;;;;;;;7.43;5.13;;;17.60;99.90;;;;;;4985234;28;20077;-75
2022/08/30 03:48:11;;;;;;;5.63;4.63;;;17.60;99.90;;;;;;4984658;28;20467;-76
2022/08/30 03:50:37;;;;;;;5.63;4.57;;;17.60;99.90;;;;;;4986971;28;20093;-76
2022/08/30 03:53:03;;;;;;;11.90;5.05;;;17.50;99.90;;;;;;4984081;28;20058;-79
2022/08/30 03:55:29;;;;;;;9.25;5.32;;;17.50;99.90;;;;;;4978826;28;20118;-75
2022/08/30 03:57:57;;;;;;;5.35;4.95;;;17.50;99.90;;;;;;4980453;28;20399;-75
2022/08/30 04:00:25;;;;;;;5.70;5.15;;;17.50;99.90;;;;;;4979756;28;20031;-75
2022/08/30 04:02:51;;;;;;;6.35;5.25;;;17.50;99.90;;;;;;4983319;28;20403;-72
2022/08/30 04:05:17;;;;;;;9.38;5.10;;;17.40;99.90;;;;;;4989570;28;20042;-74
2022/08/30 04:07:42;;;;;;;6.10;5.50;;;17.50;99.90;;;;;;4987353;28;20109;-78
2022/08/30 04:10:11;;;;;;;9.65;5.35;;;17.40;99.90;;;;;;4982203;28;20582;-78
2022/08/30 04:12:36;;;;;;;8.73;5.25;;;17.40;99.90;;;;;;4986936;28;20271;-77
2022/08/30 04:15:06;;;;;;;5.47;4.97;;;17.40;99.90;;;;;;4998885;28;20026;-76
2022/08/30 04:17:35;;;;;;;5.97;5.40;;;17.40;99.90;;;;;;4997681;28;20034;-78
2022/08/30 04:20:01;;;;;;;10.18;5.60;;;17.40;99.90;;;;;;4981136;28;20030;-77
2022/08/30 04:22:29;;;;;;;7.82;4.95;;;17.30;99.90;;;;;;4984605;28;20089;-77
2022/08/30 04:24:54;;;;;;;9.38;5.47;;;17.30;99.90;;;;;;4984760;28;20061;-78
2022/08/30 04:27:20;;;;;;;7.45;5.32;;;17.30;99.90;;;;;;4987581;28;20034;-77
2022/08/30 04:29:46;;;;;;;5.82;5.32;;;17.30;99.90;;;;;;4991591;28;20077;-76
2022/08/30 04:32:12;;;;;;;8.55;5.45;;;17.30;99.90;;;;;;4987978;28;20062;-76
2022/08/30 04:34:40;;;;;;;9.57;5.88;;;17.20;99.90;;;;;;4992735;28;20296;-77
2022/08/30 04:37:06;;;;;;;8.00;5.80;;;17.20;99.90;;;;;;4990058;28;20498;-78
2022/08/30 04:39:32;;;;;;;5.88;5.10;;;17.20;99.90;;;;;;4988402;28;20106;-77
2022/08/30 04:41:58;;;;;;;6.10;5.45;;;17.20;99.90;;;;;;4995999;28;20039;-80
2022/08/30 04:44:26;;;;;;;10.30;5.97;;;17.10;99.90;;;;;;4981578;28;20041;-79
2022/08/30 04:46:54;;;;;;;6.13;5.53;;;17.10;99.90;;;;;;4985311;28;20471;-78
2022/08/30 04:49:21;;;;;;;6.10;5.43;;;17.20;99.90;;;;;;4983000;28;20077;-76
2022/08/30 04:51:47;;;;;;;9.55;6.47;;;17.20;99.90;;;;;;4982004;28;20069;-79
2022/08/30 04:54:13;;;;;;;10.07;5.43;;;17.10;99.90;;;;;;4980864;28;20065;-75
2022/08/30 04:56:39;;;;;;;6.53;5.82;;;17.10;99.90;;;;;;4985240;28;20040;-72
2022/08/30 04:59:04;;;;;;;11.50;6.10;;;17.10;99.90;;;;;;5002339;28;20045;-81
2022/08/30 05:01:34;;;;;;;6.55;5.95;;;17.10;99.90;;;;;;4984646;28;20030;-77
2022/08/30 05:03:59;;;;;;;7.47;6.15;;;17.10;99.90;;;;;;4989833;28;20034;-80
2022/08/30 05:06:29;;;;;;;6.90;6.20;;;17.10;99.90;;;;;;5014417;28;20531;-77
2022/08/30 05:08:55;;;;;;;6.07;5.63;;;17.20;99.90;;;;;;4987805;28;20032;-75
2022/08/30 05:11:21;;;;;;;7.25;5.60;;;17.20;99.90;;;;;;4984787;28;20420;-76
2022/08/30 05:13:49;;;;;;;6.30;5.70;;;17.20;99.90;;;;;;4988932;28;20070;-77
2022/08/30 05:16:18;;;;;;;7.25;5.57;;;17.30;99.90;;;;;;4984714;28;20031;-76
2022/08/30 05:18:45;;;;;;;8.95;5.93;;;17.20;99.90;;;;;;4980597;28;20101;-82
2022/08/30 05:21:18;;;;;;;7.22;5.30;;;17.20;99.90;;;;;;4986529;28;20416;-79
2022/08/30 05:23:44;;;;;;;12.80;5.63;;;17.20;99.90;;;;;;4986427;28;20093;-79
2022/08/30 05:26:16;;;;;;;6.03;5.43;;;17.20;99.90;;;;;;4988854;28;20359;-76
2022/08/30 05:28:43;;;;;;;6.78;6.15;;;17.30;99.90;;;;;;4979234;28;20034;-77
2022/08/30 05:31:18;;;;;;;6.25;5.65;;;17.30;99.90;;;;;;4994932;28;20022;-75
2022/08/30 05:33:44;;;;;;;6.72;4.80;;;17.40;99.90;;;;;;4983335;28;20356;-77
2022/08/30 05:36:15;;;;;;;8.27;5.93;;;17.40;99.90;;;;;;4987472;28;20141;-77
2022/08/30 05:38:41;;;;;;;6.55;5.10;;;17.50;99.90;;;;;;4982796;28;20042;-75
2022/08/30 05:41:07;;;;;;;6.43;5.18;;;17.60;99.90;;;;;;4981735;28;20030;-75
2022/08/30 05:43:35;;;;;;;10.57;5.28;;;17.60;99.90;;;;;;4980385;28;20053;-76
2022/08/30 05:46:04;;;;;;;7.82;5.47;;;17.70;99.90;;;;;;4983072;28;20062;-74
2022/08/30 05:48:33;;;;;;;6.22;5.13;;;17.80;99.90;;;;;;4982565;28;20084;-79
2022/08/30 05:51:11;;;;;;;7.32;5.15;;;17.80;99.90;;;;;;4981146;28;20058;-77
2022/08/30 05:53:38;;;;;;;7.15;5.47;;;17.90;99.90;;;;;;4989943;28;20097;-76
2022/08/30 05:56:06;;;;;;;5.80;5.10;;;17.90;99.90;;;;;;4982867;28;20042;-75
2022/08/30 05:58:32;;;;;;;6.43;4.85;;;18.00;99.90;;;;;;4985079;28;20018;-79
2022/08/30 06:01:01;;;;;;;6.32;4.88;;;18.20;99.90;;;;;;4982910;28;20092;-78
2022/08/30 06:03:27;;;;;;;6.05;4.63;;;18.20;99.90;;;;;;4987293;28;20361;-81
2022/08/30 06:05:53;;;;;;;8.88;4.82;;;18.30;99.90;;;;;;4978986;28;20133;-77
2022/08/30 06:08:20;;;;;;;7.70;5.07;;;18.40;99.90;;;;;;4983609;28;20320;-75
2022/08/30 06:10:45;;;;;;;6.35;4.68;;;18.50;99.90;;;;;;4983328;28;20410;-76
2022/08/30 06:13:15;;;;;;;7.63;4.22;;;18.60;99.90;;;;;;4977219;28;20397;-76
2022/08/30 06:15:43;;;;;;;9.82;4.45;;;18.60;99.90;;;;;;4977394;28;20093;-78
2022/08/30 06:18:10;;;;;;;10.35;4.25;;;18.60;99.90;;;;;;4979262;28;20042;-75
2022/08/30 06:20:41;;;;;;;7.93;4.57;;;18.50;99.90;;;;;;4980448;28;20389;-77
2022/08/30 06:23:08;;;;;;;4.07;3.78;;;18.60;99.90;;;;;;4981255;28;20305;-77
2022/08/30 06:25:36;;;;;;;4.07;3.78;;;18.70;99.90;;;;;;4985352;28;20118;-76
2022/08/30 06:28:04;;;;;;;6.15;4.10;;;18.90;99.90;;;;;;4978851;28;20041;-78
2022/08/30 06:30:29;;;;;;;4.35;3.95;;;19.00;99.90;;;;;;4987906;28;20447;-77
2022/08/30 06:32:55;;;;;;;11.15;4.72;;;19.00;99.90;;;;;;5013628;28;20066;-78
2022/08/30 06:35:21;;;;;;;13.70;4.60;;;19.10;99.90;;;;;;4999262;28;20113;-75
2022/08/30 06:37:47;;;;;;;7.57;5.40;;;19.10;99.90;;;;;;4981830;28;20018;-77
2022/08/30 06:40:17;;;;;;;5.38;3.53;;;19.10;99.90;;;;;;5001336;28;20038;-77
2022/08/30 06:42:42;;;;;;;6.50;3.50;;;19.10;99.90;;;;;;4985543;28;20040;-77
2022/08/30 06:45:09;;;;;;;4.35;3.95;;;19.20;99.90;;;;;;4980958;28;20121;-77
2022/08/30 06:47:34;;;;;;;6.80;3.72;;;19.20;99.90;;;;;;4994309;28;20107;-78
2022/08/30 06:50:02;;;;;;;3.60;3.30;;;19.40;99.90;;;;;;4997118;28;20372;-78
2022/08/30 06:52:28;;;;;;;44.60;16.02;;;19.50;99.90;;;;;;4982937;28;20034;-77
2022/08/30 06:54:57;;;;;;;6.82;3.80;;;19.70;99.90;;;;;;4980813;28;20546;-77
2022/08/30 06:57:24;;;;;;;3.63;3.28;;;19.70;99.90;;;;;;4982936;28;20057;-78
2022/08/30 06:59:54;;;;;;;3.22;2.95;;;19.80;99.90;;;;;;4982606;28;20498;-75
2022/08/30 07:02:21;;;;;;;3.17;2.92;;;19.80;99.90;;;;;;4986963;28;20030;-79
2022/08/30 07:04:47;;;;;;;3.38;3.03;;;19.80;99.90;;;;;;4987381;28;20030;-75
2022/08/30 07:07:13;;;;;;;6.95;2.83;;;19.90;99.90;;;;;;4980251;28;20034;-75
2022/08/30 07:09:42;;;;;;;6.70;3.22;;;20.00;99.90;;;;;;4981337;28;20081;-74
2022/08/30 07:12:11;;;;;;;3.03;2.72;;;20.00;99.90;;;;;;4985358;28;20023;-74
2022/08/30 07:14:37;;;;;;;10.13;3.00;;;20.10;99.90;;;;;;4983240;28;20022;-79
2022/08/30 07:18:49;;;;;;;3.92;2.85;;;20.10;99.90;;;;;;4980114;28;20049;-75
2022/08/30 07:19:55;;;;;;;4.53;2.50;;;20.20;99.90;;;;;;4984146;28;20026;-79
2022/08/30 07:22:21;;;;;;;2.70;2.33;;;20.20;99.90;;;;;;4986372;28;20034;-78
2022/08/30 07:24:47;;;;;;;2.50;2.20;;;20.30;99.90;;;;;;4978080;28;20077;-77
2022/08/30 07:27:13;;;;;;;69.43;38.58;;;20.40;99.90;;;;;;4983487;28;20557;-79
2022/08/30 07:29:39;;;;;;;8.02;3.88;;;20.40;99.90;;;;;;4985624;28;20027;-78
2022/08/30 07:32:05;;;;;;;1.73;1.63;;;20.60;99.90;;;;;;4982421;28;20033;-74
2022/08/30 07:34:31;;;;;;;3.25;1.70;;;20.70;99.90;;;;;;4989312;28;20329;-77
2022/08/30 07:36:56;;;;;;;8.02;1.90;;;20.80;99.90;;;;;;4978219;28;20030;-80
2022/08/30 07:39:22;;;;;;;2.20;1.30;;;20.90;99.90;;;;;;5000729;28;20022;-82
2022/08/30 07:41:49;;;;;;;2.45;1.42;;;21.10;99.90;;;;;;4987288;28;20030;-74
2022/08/30 07:44:15;;;;;;;4.45;1.30;;;21.20;99.90;;;;;;4982944;28;20051;-77
2022/08/30 07:46:41;;;;;;;4.00;1.30;;;21.40;99.90;;;;;;4986419;28;20066;-77
2022/08/30 07:49:08;;;;;;;9.80;1.52;;;21.40;99.90;;;;;;4982117;28;20031;-79
2022/08/30 07:51:34;;;;;;;3.95;1.27;;;21.50;99.90;;;;;;4982226;28;20050;-78
2022/08/30 07:53:59;;;;;;;5.10;1.60;;;21.60;99.90;;;;;;4985274;28;20042;-77
2022/08/30 07:56:26;;;;;;;1.27;1.17;;;21.80;99.90;;;;;;4986275;28;20030;-75
2022/08/30 07:58:52;;;;;;;1.65;1.23;;;21.80;99.90;;;;;;4990517;28;20460;-78
2022/08/30 08:01:19;;;;;;;1.10;0.90;;;21.80;99.90;;;;;;4987635;28;20022;-79
2022/08/30 08:03:46;;;;;;;3.88;1.30;;;22.00;99.90;;;;;;4987480;28;20107;-78
2022/08/30 08:06:13;;;;;;;2.88;1.30;;;22.10;99.90;;;;;;4985765;28;20027;-78
2022/08/30 08:08:40;;;;;;;2.60;1.10;;;22.40;99.90;;;;;;4987431;28;20033;-75
2022/08/30 08:11:21;;;;;;;6.00;1.30;;;22.50;99.90;;;;;;4985975;28;20136;-73
2022/08/30 08:13:49;;;;;;;1.25;1.10;;;22.70;99.90;;;;;;5007569;28;20470;-75
2022/08/30 08:16:15;;;;;;;1.98;1.33;;;22.80;99.90;;;;;;5005227;28;20026;-77
2022/08/30 08:18:41;;;;;;;4.32;0.90;;;22.90;99.90;;;;;;5023641;28;20074;-77
2022/08/30 08:21:06;;;;;;;1.98;1.02;;;23.10;99.90;;;;;;4987719;28;20022;-74
2022/08/30 08:23:32;;;;;;;3.40;1.15;;;23.20;99.90;;;;;;4989094;28;20105;-77
2022/08/30 08:25:58;;;;;;;5.47;1.45;;;23.30;99.90;;;;;;4987688;28;20027;-77
2022/08/30 08:28:26;;;;;;;3.10;1.33;;;23.50;99.00;;;;;;4993563;28;20032;-75
2022/08/30 08:30:52;;;;;;;1.75;1.30;;;23.80;98.60;;;;;;4991257;28;20037;-74
2022/08/30 08:33:18;;;;;;;2.78;0.90;;;24.00;97.70;;;;;;4996605;28;20022;-76
2022/08/30 08:35:45;;;;;;;414.67;174.98;;;24.20;97.30;;;;;;4988937;28;20030;-78
2022/08/30 08:38:11;;;;;;;5.85;3.10;;;24.70;95.80;;;;;;4988516;28;20031;-75
2022/08/30 08:40:58;;;;;;;3.28;1.05;;;24.80;94.80;;;;;;4986559;28;20037;-75
2022/08/30 08:43:27;;;;;;;1.50;1.05;;;24.80;94.00;;;;;;5005392;28;20018;-74
2022/08/30 08:46:15;;;;;;;7.65;1.10;;;24.80;94.10;;;;;;4986114;28;20018;-76
2022/08/30 08:48:49;;;;;;;3.20;1.17;;;25.20;93.10;;;;;;4989565;28;20038;-75
2022/08/30 08:54:29;;;;;;;5.78;1.30;;;25.60;91.10;;;;;;4983755;28;20110;-77
2022/08/30 08:56:57;;;;;;;8.65;1.15;;;25.90;90.10;;;;;;4984097;28;20137;-77
2022/08/30 08:59:22;;;;;;;3.83;1.55;;;26.00;88.80;;;;;;4982651;28;20030;-75
2022/08/30 09:01:49;;;;;;;2.05;1.23;;;26.20;87.50;;;;;;4979643;28;20034;-78
2022/08/30 09:04:21;;;;;;;4.65;3.20;;;26.50;87.20;;;;;;4979280;28;20030;-77
2022/08/30 09:06:58;;;;;;;223.13;117.45;;;26.70;85.00;;;;;;4999134;28;20039;-75
2022/08/30 09:09:30;;;;;;;6.40;1.50;;;27.00;82.30;;;;;;4996455;28;20348;-77
2022/08/30 09:11:56;;;;;;;3.42;1.45;;;27.10;81.60;;;;;;4985779;28;20035;-73
2022/08/30 09:14:25;;;;;;;2.78;1.20;;;27.10;79.50;;;;;;4985425;28;20031;-76
2022/08/30 09:16:55;;;;;;;3.65;1.02;;;26.90;79.90;;;;;;4981484;28;20152;-76
2022/08/30 09:20:01;;;;;;;4.00;1.77;;;27.10;78.90;;;;;;4980721;28;20038;-76
2022/08/30 09:22:39;;;;;;;5.22;1.98;;;27.10;80.40;;;;;;4979452;28;20074;-76
2022/08/30 09:25:07;;;;;;;1.80;1.38;;;27.40;77.10;;;;;;4987477;28;20034;-74
2022/08/30 09:27:36;;;;;;;3.17;1.02;;;27.40;76.40;;;;;;4985046;28;20395;-76
2022/08/30 09:30:08;;;;;;;3.08;1.33;;;27.60;75.50;;;;;;4983114;28;20169;-76
2022/08/30 09:32:38;;;;;;;5.07;1.20;;;27.70;75.20;;;;;;4980663;28;20031;-78
2022/08/30 09:35:12;;;;;;;2.35;1.45;;;28.10;73.80;;;;;;4983098;28;20046;-74
2022/08/30 09:37:50;;;;;;;49.90;26.30;;;27.90;72.70;;;;;;4980381;28;20476;-72
2022/08/30 09:40:33;;;;;;;146.15;68.93;;;27.80;72.10;;;;;;4990965;28;20485;-71
2022/08/30 09:43:20;;;;;;;3.10;1.55;;;27.60;72.90;;;;;;4982932;28;20057;-74
2022/08/30 09:46:03;;;;;;;7.30;1.55;;;27.90;72.60;;;;;;4985241;28;20039;-74
2022/08/30 09:48:31;;;;;;;4.97;1.45;;;28.30;70.60;;;;;;4983558;28;20033;-74
2022/08/30 09:51:23;;;;;;;2.35;1.23;;;28.50;69.30;;;;;;4999087;28;20030;-74
2022/08/30 09:54:06;;;;;;;4.13;1.40;;;28.70;68.20;;;;;;4986624;28;20037;-74
2022/08/30 09:56:40;;;;;;;;;;;28.70;67.80;;;;;;4984470;28;20473;-74
2022/08/30 09:59:24;;;;;;;1.27;1.00;;;28.50;67.00;;;;;;4979972;28;20287;-75
2022/08/30 10:02:02;;;;;;;2.85;1.45;;;28.50;66.70;;;;;;4997607;28;20034;-74
2022/08/30 10:04:37;;;;;;;3.38;1.20;;;28.60;66.90;;;;;;4983126;28;20356;-75
2022/08/30 10:07:08;;;;;;;151.63;62.15;;;28.70;65.70;;;;;;4982469;28;20471;-72
2022/08/30 10:10:07;;;;;;;4.53;1.88;;;28.80;66.10;;;;;;4981946;28;20042;-74
2022/08/30 10:12:54;;;;;;;5.28;1.67;;;28.90;65.70;;;;;;4979457;28;20023;-72
2022/08/30 10:15:45;;;;;;;2.08;1.33;;;29.20;64.40;;;;;;4984232;28;20015;-73
2022/08/30 10:18:15;;;;;;;7.80;1.95;;;29.30;64.30;;;;;;4978439;28;20069;-75
2022/08/30 10:21:08;;;;;;;3.78;1.65;;;29.40;62.30;;;;;;4986232;28;20100;-73
2022/08/30 10:23:40;;;;;;;3.67;1.58;;;29.40;62.60;;;;;;4980885;28;20821;-74
2022/08/30 10:26:20;;;;;;;4.25;1.75;;;29.50;62.30;;;;;;4981780;28;20042;-73
2022/08/30 10:28:57;;;;;;;7.30;1.80;;;29.50;61.40;;;;;;4979806;28;20041;-74
2022/08/30 10:31:51;;;;;;;6.20;1.70;;;29.90;60.90;;;;;;4983821;28;20069;-75
2022/08/30 10:34:39;;;;;;;3.33;1.40;;;29.80;59.80;;;;;;4982526;28;20361;-74
2022/08/30 10:37:16;;;;;;;4.50;1.75;;;29.90;60.00;;;;;;4986519;28;20022;-75
2022/08/30 10:39:49;;;;;;;4.85;1.45;;;30.20;60.00;;;;;;4983228;28;20073;-75
2022/08/30 10:42:21;;;;;;;4.10;2.00;;;30.20;59.20;;;;;;4978641;28;20050;-75
2022/08/30 10:45:10;;;;;;;6.40;1.60;;;30.50;59.00;;;;;;4983684;28;20428;-73
2022/08/30 10:47:48;;;;;;;3.30;1.67;;;30.40;58.50;;;;;;4986111;28;20034;-74
2022/08/30 10:50:36;;;;;;;3.28;1.27;;;30.30;57.90;;;;;;4986300;28;20033;-76
2022/08/30 10:53:15;;;;;;;2.97;1.50;;;30.50;57.90;;;;;;4979176;28;20050;-75
2022/08/30 10:55:59;;;;;;;1.67;1.58;;;30.50;58.10;;;;;;4981923;28;20031;-72
2022/08/30 10:58:25;;;;;;;1.70;1.60;;;30.80;57.20;;;;;;4981007;28;20023;-70
2022/08/30 11:01:08;;;;;;;14.98;6.95;;;31.10;57.20;;;;;;4978587;28;20097;-77
2022/08/30 11:03:35;;;;;;;1.70;1.58;;;31.60;55.40;;;;;;4982818;28;20027;-79
2022/08/30 11:06:25;;;;;;;1.83;1.42;;;31.70;54.40;;;;;;4995461;28;20038;-78
2022/08/30 11:09:10;;;;;;;5.80;1.40;;;31.40;54.50;;;;;;4983438;28;20737;-77
2022/08/30 11:11:54;;;;;;;2.42;1.65;;;31.10;54.90;;;;;;4983792;28;20022;-77
2022/08/30 11:14:23;;;;;;;3.70;1.20;;;30.80;55.50;;;;;;4982095;28;20045;-78
2022/08/30 11:16:52;;;;;;;6.30;1.90;;;31.10;55.00;;;;;;4983330;28;20042;-77
2022/08/30 11:19:22;;;;;;;1.63;1.52;;;31.30;54.50;;;;;;4982933;28;20026;-77
2022/08/30 11:21:50;;;;;;;4.82;2.30;;;31.10;54.60;;;;;;4979718;28;20105;-77
2022/08/30 11:24:23;;;;;;;2.20;2.10;;;31.10;54.30;;;;;;4981195;28;20027;-75
2022/08/30 11:26:52;;;;;;;3.33;1.90;;;31.20;54.70;;;;;;4998764;28;20093;-77
2022/08/30 11:29:29;;;;;;;9.00;2.10;;;31.30;54.70;;;;;;4988103;28;20547;-76
2022/08/30 11:31:59;;;;;;;3.03;2.03;;;31.50;52.70;;;;;;4988988;28;20057;-78
2022/08/30 11:34:43;;;;;;;3.67;1.70;;;31.50;53.30;;;;;;5002476;28;20452;-77
2022/08/30 11:37:32;;;;;;;6.47;2.10;;;31.40;52.80;;;;;;4988338;28;20106;-78
2022/08/30 11:40:00;;;;;;;2.58;2.00;;;31.30;53.10;;;;;;4995463;28;20062;-76
2022/08/30 11:42:36;;;;;;;4.57;1.80;;;31.30;53.00;;;;;;4992887;28;20509;-79
2022/08/30 11:45:26;;;;;;;128.25;66.97;;;31.50;52.80;;;;;;4982960;28;20115;-72
2022/08/30 11:47:57;;;;;;;3.20;2.00;;;31.80;52.20;;;;;;4982255;28;20096;-77
2022/08/30 11:50:39;;;;;;;7.35;1.90;;;32.00;52.00;;;;;;4983501;28;20031;-76
2022/08/30 11:53:22;;;;;;;5.68;1.73;;;32.00;51.20;;;;;;4980460;28;20400;-78
2022/08/30 11:56:08;;;;;;;2.65;2.13;;;32.10;51.30;;;;;;4980598;28;20077;-78
2022/08/30 11:58:47;;;;;;;4.43;1.85;;;32.50;50.80;;;;;;4980245;28;20431;-78
2022/08/30 12:01:18;;;;;;;2.05;1.90;;;32.30;50.60;;;;;;4996824;28;20356;-77
2022/08/30 12:03:52;;;;;;;4.63;1.60;;;32.20;50.60;;;;;;4994247;28;20030;-78
2022/08/30 12:06:40;;;;;;;5.68;2.10;;;32.10;50.60;;;;;;4981720;28;20026;-77
2022/08/30 12:09:31;;;;;;;2.78;2.10;;;32.30;50.80;;;;;;4985521;28;20042;-78
2022/08/30 12:12:03;;;;;;;7.45;1.85;;;32.50;50.20;;;;;;4985677;28;20379;-77
2022/08/30 12:14:43;;;;;;;3.13;2.17;;;32.50;49.80;;;;;;4980569;28;20760;-78
2022/08/30 12:20:49;;;;;;;1.80;1.70;;;32.40;49.20;;;;;;4978120;28;20026;-76
2022/08/30 12:23:34;;;;;;;2.25;1.83;;;32.30;49.40;;;;;;4977510;28;20022;-77
2022/08/30 12:26:30;;;;;;;1.95;1.70;;;32.30;49.40;;;;;;4981518;28;20037;-77
2022/08/30 12:29:16;;;;;;;5.38;1.70;;;32.30;49.30;;;;;;4984880;28;20041;-77
2022/08/30 12:31:45;;;;;;;2.67;2.40;;;32.30;49.20;;;;;;4986777;28;20041;-77
2022/08/30 12:34:24;;;;;;;4.15;1.98;;;32.10;49.30;;;;;;4986830;28;20101;-77
2022/08/30 12:36:57;;;;;;;3.80;1.80;;;32.30;49.00;;;;;;4992480;28;20015;-76
2022/08/30 12:39:28;;;;;;;7.53;1.95;;;32.50;48.60;;;;;;5005512;28;20027;-76
2022/08/30 12:41:54;;;;;;;3.60;1.83;;;32.70;48.40;;;;;;5018297;28;20387;-76
2022/08/30 12:44:24;;;;;;;6.38;2.33;;;32.70;48.00;;;;;;4987376;28;20415;-76
2022/08/30 12:47:00;;;;;;;1.88;1.77;;;32.70;48.10;;;;;;4983178;28;20041;-76
2022/08/30 12:49:33;;;;;;;9.93;1.60;;;32.90;47.80;;;;;;4985652;28;20049;-76
2022/08/30 12:52:38;;;;;;;3.55;1.60;;;33.00;47.70;;;;;;4984338;28;20367;-75
2022/08/30 12:55:28;;;;;;;2.40;1.70;;;33.20;47.10;;;;;;5003567;28;20055;-76
2022/08/30 12:58:09;;;;;;;2.42;2.22;;;32.90;46.90;;;;;;4986931;28;20149;-76
2022/08/30 13:00:36;;;;;;;2.55;2.22;;;32.90;47.10;;;;;;4984121;28;20019;-76
2022/08/30 13:03:23;;;;;;;2.85;1.58;;;33.30;46.60;;;;;;4986999;28;20028;-75
2022/08/30 13:05:50;;;;;;;3.05;1.90;;;33.30;45.80;;;;;;4981477;28;21413;-77
2022/08/30 13:08:44;;;;;;;4.88;1.75;;;33.30;45.60;;;;;;4984028;28;20132;-77